Time;durP1;ratioP1;P1;durP2;ratioP2;P2;SDS_P1;SDS_P2;PMS_P1;PMS_P2;Temp;Humidity;BMP_temperature;BMP_pressure;BME280_temperature;BME280_humidity;BME280_pressure;Samples;Min_cycle;Max_cycle;Signal;HPM_P1;HPM_P2
2022/10/12 00:02:19;;;;;;;33.67;31.07;;;;;;;10.09;100.00;102526.88;5014970;28;20441;-50
2022/10/12 00:04:46;;;;;;;32.43;30.23;;;;;;;10.11;100.00;102533.75;5015166;28;20440;-54
2022/10/12 00:07:14;;;;;;;31.73;29.90;;;;;;;10.12;100.00;102531.91;5014964;28;20503;-48
2022/10/12 00:09:42;;;;;;;32.97;30.73;;;;;;;10.14;100.00;102538.81;5014540;28;20473;-49
2022/10/12 00:12:09;;;;;;;32.40;30.30;;;;;;;10.17;100.00;102540.31;5015210;28;20846;-50
2022/10/12 00:14:37;;;;;;;32.57;30.47;;;;;;;10.18;100.00;102542.84;5015116;28;20495;-49
2022/10/12 00:17:05;;;;;;;32.57;30.33;;;;;;;10.20;100.00;102540.03;5046486;22;20488;-44
2022/10/12 00:19:34;;;;;;;32.93;30.93;;;;;;;10.22;100.00;102538.88;5021788;28;20468;-42
2022/10/12 00:22:01;;;;;;;34.03;31.50;;;;;;;10.24;100.00;102536.94;5014622;28;20487;-43
2022/10/12 00:24:29;;;;;;;33.20;31.00;;;;;;;10.26;100.00;102542.09;5014885;28;20515;-43
2022/10/12 00:26:57;;;;;;;33.40;31.40;;;;;;;10.29;100.00;102537.31;5014754;28;20452;-46
2022/10/12 00:29:24;;;;;;;32.23;30.27;;;;;;;10.31;100.00;102539.81;5014178;28;20869;-44
2022/10/12 00:31:52;;;;;;;32.53;30.50;;;;;;;10.31;100.00;102531.81;5014357;28;20433;-45
2022/10/12 00:34:19;;;;;;;32.63;30.40;;;;;;;10.32;100.00;102539.66;5014363;28;20440;-43
2022/10/12 00:36:48;;;;;;;31.50;29.90;;;;;;;10.32;100.00;102537.00;5013945;28;20445;-43
2022/10/12 00:39:16;;;;;;;32.77;30.77;;;;;;;10.34;100.00;102536.84;5013984;28;20484;-44
2022/10/12 00:41:44;;;;;;;34.10;31.70;;;;;;;10.32;100.00;102534.34;5014358;28;20511;-42
2022/10/12 00:44:34;;;;;;;32.50;30.53;;;;;;;10.34;100.00;102539.50;5014571;28;20498;-43
2022/10/12 00:47:07;;;;;;;33.23;31.13;;;;;;;10.34;100.00;102542.16;5014292;28;20441;-45
2022/10/12 00:49:35;;;;;;;32.60;30.17;;;;;;;10.34;100.00;102539.50;5013802;28;20468;-45
2022/10/12 00:52:08;;;;;;;33.63;31.23;;;;;;;10.33;100.00;102538.69;5013900;28;20966;-41
2022/10/12 00:54:42;;;;;;;34.23;31.10;;;;;;;10.31;100.00;102537.13;5014137;28;20459;-43
2022/10/12 00:57:13;;;;;;;33.33;30.83;;;;;;;10.31;100.00;102535.31;5013913;28;20477;-43
2022/10/12 00:59:45;;;;;;;33.10;30.97;;;;;;;10.30;100.00;102538.16;5013446;28;20465;-42
2022/10/12 01:02:13;;;;;;;32.60;30.70;;;;;;;10.31;100.00;102532.66;5013924;28;20429;-43
2022/10/12 01:04:41;;;;;;;33.00;31.03;;;;;;;10.31;100.00;102532.66;5012958;28;20500;-46
2022/10/12 01:07:10;;;;;;;32.03;30.23;;;;;;;10.31;100.00;102532.66;5013812;28;20452;-43
2022/10/12 01:09:38;;;;;;;32.40;30.40;;;;;;;10.32;100.00;102526.34;5013279;28;20473;-44
2022/10/12 01:12:07;;;;;;;32.90;31.00;;;;;;;10.32;100.00;102534.34;5013470;28;20449;-43
2022/10/12 01:14:36;;;;;;;34.00;31.50;;;;;;;10.33;100.00;102530.69;5013953;28;20514;-43
2022/10/12 01:17:13;;;;;;;32.50;30.63;;;;;;;10.33;100.00;102533.34;5013558;28;20461;-43
2022/10/12 01:20:00;;;;;;;31.00;29.40;;;;;;;10.34;100.00;102527.00;5010782;28;20492;-43
2022/10/12 01:22:35;;;;;;;31.77;30.10;;;;;;;10.34;100.00;102526.16;5013258;28;20839;-44
2022/10/12 01:25:17;;;;;;;32.40;30.03;;;;;;;10.34;100.00;102520.84;5013752;28;20432;-43
2022/10/12 01:27:49;;;;;;;31.73;29.73;;;;;;;10.33;100.00;102514.69;5013052;28;20537;-44
2022/10/12 01:30:21;;;;;;;32.80;30.73;;;;;;;10.33;100.00;102519.19;5013585;28;20854;-43
2022/10/12 01:33:06;;;;;;;31.87;30.03;;;;;;;10.32;100.00;102526.34;5013128;28;20425;-45
2022/10/12 01:35:41;;;;;;;34.07;31.57;;;;;;;10.30;100.00;102515.00;5013267;28;20991;-46
2022/10/12 01:38:20;;;;;;;34.80;32.10;;;;;;;10.30;100.00;102517.66;5012850;28;20515;-43
2022/10/12 01:40:59;;;;;;;34.93;32.30;;;;;;;10.28;100.00;102511.63;5013002;28;20444;-43
2022/10/12 01:43:33;;;;;;;34.87;32.67;;;;;;;10.27;100.00;102501.97;5013054;28;20429;-43
2022/10/12 01:46:40;;;;;;;36.53;34.03;;;;;;;10.26;100.00;102510.94;5013063;28;20476;-44
2022/10/12 01:49:11;;;;;;;35.83;33.27;;;;;;;10.22;100.00;102512.22;5012650;28;20523;-46
2022/10/12 01:52:11;;;;;;;38.03;34.57;;;;;;;10.23;100.00;102505.06;5012666;28;20433;-43
2022/10/12 01:54:52;;;;;;;37.47;34.93;;;;;;;10.22;100.00;102498.88;5001967;28;20445;-42
2022/10/12 01:57:25;;;;;;;37.17;34.40;;;;;;;10.22;100.00;102506.03;5012974;28;20511;-42
2022/10/12 02:00:02;;;;;;;36.67;34.27;;;;;;;10.23;100.00;102499.72;5005386;28;20465;-43
2022/10/12 02:02:37;;;;;;;36.67;34.23;;;;;;;10.23;100.00;102497.06;5013107;28;20428;-43
2022/10/12 02:05:14;;;;;;;35.43;33.20;;;;;;;10.24;100.00;102496.09;5013062;28;20417;-44
2022/10/12 02:07:47;;;;;;;35.73;33.53;;;;;;;10.23;100.00;102491.72;5012268;28;20449;-44
2022/10/12 02:10:20;;;;;;;34.23;31.83;;;;;;;10.26;100.00;102484.28;5012868;28;20479;-43
2022/10/12 02:12:49;;;;;;;33.63;31.50;;;;;;;10.28;100.00;102487.63;5012739;28;20413;-43
2022/10/12 02:15:18;;;;;;;33.90;31.87;;;;;;;10.32;100.00;102482.81;5012919;28;20486;-43
2022/10/12 02:17:49;;;;;;;34.80;32.60;;;;;;;10.35;100.00;102485.19;5011538;28;20543;-44
2022/10/12 02:20:20;;;;;;;37.57;34.60;;;;;;;10.35;100.00;102479.84;5010693;28;20488;-46
2022/10/12 02:22:51;;;;;;;37.93;35.20;;;;;;;10.36;100.00;102477.03;5004382;28;20511;-44
2022/10/12 02:25:21;;;;;;;37.10;34.40;;;;;;;10.35;100.00;102469.19;5012313;28;20488;-45
2022/10/12 02:27:55;;;;;;;39.20;35.60;;;;;;;10.33;100.00;102481.84;5012193;28;20846;-48
2022/10/12 02:30:22;;;;;;;36.83;34.33;;;;;;;10.31;100.00;102479.31;5012634;28;20432;-45
2022/10/12 02:32:55;;;;;;;34.80;32.80;;;;;;;10.30;100.00;102477.66;5012542;28;20440;-44
2022/10/12 02:35:31;;;;;;;35.60;33.30;;;;;;;10.29;100.00;102481.31;5012297;28;20456;-45
2022/10/12 02:38:05;;;;;;;35.20;33.10;;;;;;;10.28;100.00;102473.44;5012093;28;20473;-45
2022/10/12 02:40:37;;;;;;;35.30;33.00;;;;;;;10.27;100.00;102477.97;5012356;28;20425;-45
2022/10/12 02:43:09;;;;;;;34.43;32.23;;;;;;;10.26;100.00;102470.09;5012161;28;20986;-46
2022/10/12 02:45:40;;;;;;;37.57;34.60;;;;;;;10.23;100.00;102473.91;5012384;28;20421;-44
2022/10/12 02:48:11;;;;;;;36.43;33.83;;;;;;;10.23;100.00;102476.59;5011692;28;20465;-44
2022/10/12 02:50:40;;;;;;;35.97;33.23;;;;;;;10.22;100.00;102472.22;5012348;28;20475;-46
2022/10/12 02:53:08;;;;;;;35.77;33.57;;;;;;;10.23;100.00;102473.91;5012308;28;20444;-46
2022/10/12 02:55:38;;;;;;;38.90;35.80;;;;;;;10.23;100.00;102467.75;5012064;28;20464;-45
2022/10/12 02:58:06;;;;;;;36.00;33.57;;;;;;;10.25;100.00;102479.06;5011613;28;20458;-44
2022/10/12 03:00:34;;;;;;;37.73;35.13;;;;;;;10.26;100.00;102470.94;5012012;28;20849;-47
2022/10/12 03:03:01;;;;;;;38.97;36.20;;;;;;;10.24;100.00;102470.28;5012061;28;20519;-45
2022/10/12 03:05:29;;;;;;;38.90;35.83;;;;;;;10.23;100.00;102463.25;5011920;28;20486;-44
2022/10/12 03:07:58;;;;;;;38.10;35.30;;;;;;;10.23;100.00;102465.06;5011588;28;20464;-44
2022/10/12 03:10:25;;;;;;;36.50;34.13;;;;;;;10.23;100.00;102460.59;5011958;28;20480;-45
2022/10/12 03:12:54;;;;;;;37.77;34.97;;;;;;;10.23;100.00;102457.91;5011720;28;20486;-45
2022/10/12 03:15:22;;;;;;;36.80;33.83;;;;;;;10.25;100.00;102461.25;5012040;28;20854;-45
2022/10/12 03:17:50;;;;;;;35.73;33.33;;;;;;;10.25;100.00;102463.09;5011287;28;20962;-45
2022/10/12 03:20:17;;;;;;;38.57;35.63;;;;;;;10.25;100.00;102466.59;5009623;28;20523;-45
2022/10/12 03:22:45;;;;;;;37.17;34.17;;;;;;;10.25;100.00;102463.91;5011431;28;21134;-46
2022/10/12 03:25:14;;;;;;;38.40;35.50;;;;;;;10.25;100.00;102466.59;5011737;28;20436;-46
2022/10/12 03:27:42;;;;;;;39.60;36.73;;;;;;;10.25;100.00;102460.41;5011201;28;20990;-44
2022/10/12 03:30:11;;;;;;;39.40;36.47;;;;;;;10.23;100.00;102471.25;5015968;28;20429;-46
2022/10/12 03:32:39;;;;;;;37.73;35.23;;;;;;;10.21;100.00;102467.91;5015594;28;20433;-44
2022/10/12 03:35:08;;;;;;;37.53;35.10;;;;;;;10.22;100.00;102476.72;5015824;28;20853;-44
2022/10/12 03:37:35;;;;;;;39.87;37.03;;;;;;;10.20;100.00;102479.56;5014924;28;20515;-43
2022/10/12 03:40:04;;;;;;;39.37;36.27;;;;;;;10.22;100.00;102474.91;5015485;28;20483;-43
2022/10/12 03:42:33;;;;;;;39.20;36.40;;;;;;;10.25;100.00;102485.25;5015509;28;20433;-46
2022/10/12 03:45:01;;;;;;;38.73;35.60;;;;;;;10.28;100.00;102478.78;5015659;28;20491;-46
2022/10/12 03:47:28;;;;;;;39.00;36.10;;;;;;;10.31;100.00;102478.47;5014993;28;20862;-44
2022/10/12 03:49:56;;;;;;;39.37;36.73;;;;;;;10.31;100.00;102473.97;5015405;28;20483;-44
2022/10/12 03:52:23;;;;;;;39.10;35.90;;;;;;;10.32;100.00;102478.34;5015070;28;20487;-43
2022/10/12 03:54:51;;;;;;;40.23;37.10;;;;;;;10.33;100.00;102477.34;5015356;28;20437;-47
2022/10/12 03:57:18;;;;;;;38.50;35.37;;;;;;;10.35;100.00;102467.38;5015076;28;20457;-47
2022/10/12 03:59:47;;;;;;;39.33;36.20;;;;;;;10.35;100.00;102469.19;5014508;28;21004;-45
2022/10/12 04:02:15;;;;;;;38.70;36.00;;;;;;;10.34;100.00;102478.16;5014975;28;20437;-45
2022/10/12 04:04:44;;;;;;;40.83;37.70;;;;;;;10.32;100.00;102467.66;5015188;28;20448;-45
2022/10/12 04:07:11;;;;;;;39.67;36.80;;;;;;;10.33;100.00;102468.50;5015003;28;20966;-44
2022/10/12 04:09:39;;;;;;;39.03;36.37;;;;;;;10.32;100.00;102467.66;5014607;28;20461;-44
2022/10/12 04:12:06;;;;;;;39.13;36.30;;;;;;;10.30;100.00;102466.16;5015018;28;20440;-43
2022/10/12 04:14:34;;;;;;;41.70;38.63;;;;;;;10.30;100.00;102466.16;5015083;28;20436;-47
2022/10/12 04:17:03;;;;;;;38.47;35.97;;;;;;;10.29;100.00;102464.47;5014842;28;20469;-45
2022/10/12 04:19:31;;;;;;;38.77;36.17;;;;;;;10.28;100.00;102468.09;5014208;28;20469;-45
2022/10/12 04:21:59;;;;;;;37.97;35.50;;;;;;;10.27;100.00;102469.13;5018061;28;20459;-44
2022/10/12 04:24:26;;;;;;;40.17;37.03;;;;;;;10.26;100.00;102462.94;5021505;28;20437;-44
2022/10/12 04:26:54;;;;;;;38.03;35.17;;;;;;;10.23;100.00;102465.91;5033161;28;20459;-44
2022/10/12 04:29:21;;;;;;;37.77;35.10;;;;;;;10.23;100.00;102465.06;5034112;28;20455;-44
2022/10/12 04:31:49;;;;;;;39.30;36.47;;;;;;;10.21;100.00;102465.25;5034187;28;20483;-44
2022/10/12 04:34:19;;;;;;;37.77;34.57;;;;;;;10.20;100.00;102455.56;5034250;28;20440;-46
2022/10/12 04:36:47;;;;;;;36.30;33.90;;;;;;;10.18;100.00;102462.88;5034435;28;20510;-44
2022/10/12 04:39:14;;;;;;;36.57;34.00;;;;;;;10.18;100.00;102462.03;5033624;28;20476;-44
2022/10/12 04:41:42;;;;;;;39.43;36.40;;;;;;;10.15;100.00;102463.19;5034241;28;20828;-46
2022/10/12 04:44:10;;;;;;;38.43;35.63;;;;;;;10.13;100.00;102464.25;5034243;28;20510;-44
2022/10/12 04:46:37;;;;;;;36.90;34.50;;;;;;;10.13;100.00;102472.25;5034038;28;20861;-43
2022/10/12 04:49:05;;;;;;;38.63;35.87;;;;;;;10.09;100.00;102473.56;5033814;28;20468;-45
2022/10/12 04:51:34;;;;;;;36.37;33.60;;;;;;;10.12;100.00;102478.59;5034069;28;20514;-44
2022/10/12 04:54:01;;;;;;;38.20;35.40;;;;;;;10.07;100.00;102476.38;5034275;28;20452;-44
2022/10/12 04:56:29;;;;;;;39.83;37.07;;;;;;;10.06;100.00;102476.53;5034159;28;21051;-45
2022/10/12 04:58:57;;;;;;;39.87;36.30;;;;;;;10.05;100.00;102467.69;5033576;28;20819;-48
2022/10/12 05:01:24;;;;;;;38.00;35.53;;;;;;;10.03;100.00;102472.34;5033652;28;20833;-46
2022/10/12 05:03:52;;;;;;;37.33;34.40;;;;;;;10.02;100.00;102468.00;5034100;28;20448;-45
2022/10/12 05:06:19;;;;;;;38.33;35.50;;;;;;;10.01;100.00;102477.81;5033889;28;20511;-44
2022/10/12 05:08:48;;;;;;;38.13;35.30;;;;;;;9.99;100.00;102473.63;5033447;28;20806;-46
2022/10/12 05:11:16;;;;;;;38.40;35.40;;;;;;;9.98;100.00;102477.28;5033541;28;20439;-44
2022/10/12 05:13:43;;;;;;;38.90;35.50;;;;;;;9.94;100.00;102473.25;5033749;28;20444;-47
2022/10/12 05:16:11;;;;;;;39.40;36.47;;;;;;;9.91;100.00;102463.75;5033695;28;20856;-44
2022/10/12 05:18:38;;;;;;;38.37;35.63;;;;;;;9.87;100.00;102469.50;5033486;28;20490;-45
2022/10/12 05:21:06;;;;;;;42.13;37.90;;;;;;;9.83;100.00;102460.13;5016691;28;20476;-43
2022/10/12 05:23:33;;;;;;;39.17;36.30;;;;;;;9.78;100.00;102462.41;5013973;28;20437;-45
2022/10/12 05:26:03;;;;;;;38.93;36.27;;;;;;;9.70;100.00;102465.00;5013773;28;20982;-46
2022/10/12 05:28:31;;;;;;;38.30;35.10;;;;;;;9.65;100.00;102469.91;5013308;28;20460;-45
2022/10/12 05:31:05;;;;;;;39.77;36.77;;;;;;;9.57;100.00;102468.00;5013602;28;20426;-45
2022/10/12 05:33:32;;;;;;;36.83;34.30;;;;;;;9.50;100.00;102474.06;5013849;28;20441;-43
2022/10/12 05:36:00;;;;;;;42.73;38.50;;;;;;;9.40;100.00;102471.44;5013609;28;20456;-46
2022/10/12 05:38:27;;;;;;;40.50;37.10;;;;;;;9.32;100.00;102463.34;5013224;28;20511;-48
2022/10/12 05:40:55;;;;;;;40.90;37.10;;;;;;;9.25;100.00;102464.94;5013040;28;20503;-44
2022/10/12 05:43:28;;;;;;;39.20;36.30;;;;;;;9.18;100.00;102475.31;5013856;28;20911;-44
2022/10/12 05:45:56;;;;;;;40.90;37.80;;;;;;;9.12;100.00;102472.38;5013670;28;20519;-45
2022/10/12 05:48:24;;;;;;;39.50;36.30;;;;;;;9.06;100.00;102479.13;5013253;28;20966;-45
2022/10/12 05:50:53;;;;;;;40.20;36.90;;;;;;;9.01;100.00;102476.06;5012749;28;20479;-44
2022/10/12 05:53:20;;;;;;;40.00;36.83;;;;;;;8.97;100.00;102468.50;5012679;28;20499;-45
2022/10/12 05:55:53;;;;;;;39.07;35.80;;;;;;;8.90;100.00;102469.06;5005533;28;20457;-45
2022/10/12 05:58:21;;;;;;;39.60;36.60;;;;;;;8.87;100.00;102461.38;5012767;28;20468;-45
2022/10/12 06:00:50;;;;;;;40.73;37.23;;;;;;;8.85;100.00;102465.19;5013095;28;20531;-45
2022/10/12 06:03:18;;;;;;;39.77;36.20;;;;;;;8.83;100.00;102470.66;5013412;28;20438;-44
2022/10/12 06:05:52;;;;;;;39.10;35.87;;;;;;;8.82;100.00;102462.81;5013230;28;20453;-45
2022/10/12 06:08:19;;;;;;;38.90;35.80;;;;;;;8.82;100.00;102463.66;5012854;28;20821;-44
2022/10/12 06:10:50;;;;;;;40.13;36.63;;;;;;;8.78;100.00;102466.75;5012885;28;20491;-46
2022/10/12 06:13:18;;;;;;;37.40;34.83;;;;;;;8.78;100.00;102459.59;5013370;28;20495;-42
2022/10/12 06:15:47;;;;;;;37.50;34.23;;;;;;;8.79;100.00;102460.44;5012081;28;20471;-42
2022/10/12 06:18:17;;;;;;;37.90;35.20;;;;;;;8.79;100.00;102455.94;5012585;28;20527;-45
2022/10/12 06:20:47;;;;;;;37.93;34.97;;;;;;;8.80;100.00;102462.13;5010475;28;20476;-46
2022/10/12 06:23:15;;;;;;;36.90;34.30;;;;;;;8.83;100.00;102465.34;5013360;28;20437;-44
2022/10/12 06:25:45;;;;;;;37.13;34.47;;;;;;;8.84;100.00;102459.00;5013287;28;20461;-44
2022/10/12 06:28:13;;;;;;;39.30;35.57;;;;;;;8.86;100.00;102461.53;5012602;28;20457;-45
2022/10/12 06:30:41;;;;;;;36.67;33.87;;;;;;;8.89;100.00;102456.78;5011383;28;20433;-43
2022/10/12 06:33:08;;;;;;;38.17;35.20;;;;;;;8.95;100.00;102462.50;5012465;28;20495;-44
2022/10/12 06:35:38;;;;;;;37.17;34.47;;;;;;;9.01;100.00;102467.25;5003765;28;20484;-42
2022/10/12 06:38:05;;;;;;;36.77;34.30;;;;;;;9.06;100.00;102472.97;5012107;28;20881;-47
2022/10/12 06:40:33;;;;;;;36.17;33.67;;;;;;;9.15;100.00;102472.94;4988030;28;20477;-44
2022/10/12 06:43:01;;;;;;;36.97;33.97;;;;;;;9.23;100.00;102467.72;5012481;28;20856;-44
2022/10/12 06:45:29;;;;;;;36.40;33.60;;;;;;;9.29;100.00;102461.81;5011478;28;20511;-43
2022/10/12 06:47:57;;;;;;;35.67;33.23;;;;;;;9.38;100.00;102474.25;5012525;28;20441;-43
2022/10/12 06:50:26;;;;;;;37.77;35.10;;;;;;;9.46;100.00;102465.53;5011751;28;20465;-45
2022/10/12 06:52:55;;;;;;;42.03;38.07;;;;;;;9.53;100.00;102460.47;5008190;28;20437;-44
2022/10/12 06:55:25;;;;;;;38.93;36.43;;;;;;;9.64;100.00;102460.25;5012202;28;20503;-44
2022/10/12 06:57:54;;;;;;;37.50;34.60;;;;;;;9.77;100.00;102455.41;5012114;28;20425;-43
2022/10/12 07:00:22;;;;;;;38.47;35.70;;;;;;;9.92;100.00;102451.22;5011140;28;20477;-44
2022/10/12 07:02:50;;;;;;;37.30;34.43;;;;;;;10.11;100.00;102455.59;5011744;28;20429;-43
2022/10/12 07:05:21;;;;;;;36.90;34.20;;;;;;;10.35;100.00;102448.69;5011802;28;20490;-43
2022/10/12 07:07:48;;;;;;;36.37;33.83;;;;;;;10.61;100.00;102463.88;5011561;28;20425;-45
2022/10/12 07:10:18;;;;;;;36.90;34.30;;;;;;;10.88;100.00;102458.41;5011252;28;20473;-44
2022/10/12 07:12:45;;;;;;;36.00;33.40;;;;;;;11.14;100.00;102464.59;5011163;28;20429;-45
2022/10/12 07:15:13;;;;;;;36.27;34.00;;;;;;;11.42;100.00;102452.72;5012109;28;20515;-42
2022/10/12 07:17:40;;;;;;;35.97;33.37;;;;;;;11.72;100.00;102459.38;5011645;28;20472;-46
2022/10/12 07:20:08;;;;;;;36.13;33.50;;;;;;;11.96;100.00;102454.09;5008805;28;20453;-44
2022/10/12 07:22:36;;;;;;;35.83;33.40;;;;;;;12.09;100.00;102459.81;5011529;28;20430;-45
2022/10/12 07:25:04;;;;;;;35.87;33.20;;;;;;;12.24;100.00;102451.97;5011723;28;20440;-45
2022/10/12 07:27:33;;;;;;;36.67;34.07;;;;;;;12.28;100.00;102453.28;5011617;28;21029;-44
2022/10/12 07:30:01;;;;;;;36.10;33.70;;;;;;;12.36;100.00;102450.63;5011153;28;20519;-44
2022/10/12 07:32:28;;;;;;;37.43;35.03;;;;;;;12.36;100.00;102453.31;5079516;22;20474;-47
2022/10/12 07:34:56;;;;;;;36.80;34.10;;;;;;;12.39;100.00;102447.63;5091621;28;20474;-47
2022/10/12 07:37:24;;;;;;;37.60;35.20;;;;;;;12.39;100.00;102449.47;5091556;28;20433;-48
2022/10/12 07:39:55;;;;;;;37.20;34.83;;;;;;;12.39;100.00;102455.66;5091092;28;20880;-49
2022/10/12 07:42:23;;;;;;;37.47;34.97;;;;;;;12.44;100.00;102455.16;5079638;28;21016;-47
2022/10/12 07:44:52;;;;;;;40.10;37.23;;;;;;;12.49;100.00;102455.47;5071149;28;20434;-47
2022/10/12 07:47:20;;;;;;;39.00;36.20;;;;;;;12.51;100.00;102446.28;5071153;28;20438;-47
2022/10/12 07:49:48;;;;;;;38.73;36.33;;;;;;;12.53;100.00;102449.63;5070668;28;20484;-47
2022/10/12 07:52:15;;;;;;;38.23;35.67;;;;;;;12.60;100.00;102442.56;5070586;28;20471;-47
2022/10/12 07:54:43;;;;;;;39.77;37.07;;;;;;;12.62;100.00;102443.25;5071363;28;20430;-47
2022/10/12 07:57:10;;;;;;;36.77;34.40;;;;;;;12.65;100.00;102439.41;5071322;28;20434;-47
2022/10/12 07:59:38;;;;;;;38.27;35.40;;;;;;;12.72;100.00;102445.78;5070898;28;20434;-47
2022/10/12 08:02:07;;;;;;;36.83;34.53;;;;;;;12.77;100.00;102452.28;5070593;28;21005;-54
2022/10/12 08:04:34;;;;;;;38.50;35.73;;;;;;;12.86;100.00;102439.72;5071029;28;20431;-50
2022/10/12 08:07:02;;;;;;;40.63;37.53;;;;;;;12.89;100.00;102436.69;5071315;28;20488;-52
2022/10/12 08:09:29;;;;;;;38.63;36.10;;;;;;;12.95;100.00;102445.88;5070764;28;20846;-50
2022/10/12 08:11:57;;;;;;;38.67;36.07;;;;;;;13.00;100.00;102447.03;5070919;28;20450;-53
2022/10/12 08:14:25;;;;;;;37.00;34.30;;;;;;;13.09;100.00;102448.72;5072165;28;20434;-51
2022/10/12 08:16:52;;;;;;;38.40;36.30;;;;;;;13.17;100.00;102443.34;5074534;28;20438;-51
2022/10/12 08:19:21;;;;;;;38.70;36.33;;;;;;;13.25;100.00;102447.84;5073236;28;20461;-50
2022/10/12 08:21:49;;;;;;;40.47;37.53;;;;;;;13.31;100.00;102444.47;5071708;28;20466;-52
2022/10/12 08:24:17;;;;;;;38.23;35.93;;;;;;;13.40;100.00;102453.31;5073138;28;20427;-47
2022/10/12 08:26:44;;;;;;;39.27;37.03;;;;;;;13.48;100.00;102447.91;5073278;28;20437;-47
2022/10/12 08:29:12;;;;;;;40.77;37.67;;;;;;;13.58;100.00;102454.75;5071659;28;20489;-52
2022/10/12 08:31:39;;;;;;;39.03;36.43;;;;;;;13.66;100.00;102456.53;5073172;28;20458;-50
2022/10/12 08:34:07;;;;;;;39.40;36.87;;;;;;;13.75;100.00;102453.66;5074377;28;20430;-50
2022/10/12 08:36:36;;;;;;;39.70;36.90;;;;;;;13.82;100.00;102459.16;5074440;28;20430;-51
2022/10/12 08:39:05;;;;;;;38.27;35.90;;;;;;;13.92;100.00;102453.56;5074417;28;20434;-49
2022/10/12 08:41:46;;;;;;;38.90;36.17;;;;;;;13.95;100.00;102450.53;5068029;28;20512;-47
2022/10/12 08:44:38;;;;;;;38.87;36.40;;;;;;;14.07;100.00;102454.44;5070788;28;20480;-52
2022/10/12 08:47:12;;;;;;;41.00;38.40;;;;;;;14.23;100.00;102443.63;5069652;28;20480;-50
2022/10/12 08:49:41;;;;;;;38.83;36.50;;;;;;;14.29;100.00;102446.44;5071338;28;20850;-50
2022/10/12 08:52:27;;;;;;;39.53;36.80;;;;;;;14.38;100.00;102452.59;5070167;28;20830;-51
2022/10/12 08:55:00;;;;;;;36.83;34.90;;;;;;;14.48;99.01;102447.81;5066864;28;20442;-47
2022/10/12 08:57:28;;;;;;;39.27;36.83;;;;;;;14.56;97.40;102450.44;5071030;28;20942;-48
2022/10/12 08:59:55;;;;;;;41.43;38.20;;;;;;;14.63;96.48;102445.19;5071395;28;20465;-49
2022/10/12 09:02:38;;;;;;;37.20;35.10;;;;;;;14.69;96.76;102455.19;5070592;28;20548;-49
2022/10/12 09:05:09;;;;;;;39.03;36.53;;;;;;;14.80;97.33;102450.22;5071425;28;20484;-48
2022/10/12 09:07:42;;;;;;;37.50;35.00;;;;;;;14.86;96.54;102448.63;5064833;28;20443;-47
2022/10/12 09:10:26;;;;;;;35.47;33.70;;;;;;;14.92;95.57;102453.28;5052660;28;20516;-46
2022/10/12 09:13:05;;;;;;;36.23;34.17;;;;;;;15.01;94.75;102454.84;5056617;28;20511;-51
2022/10/12 09:15:37;;;;;;;35.80;32.90;;;;;;;15.09;94.58;102456.59;5072399;28;20483;-50
2022/10/12 09:18:15;;;;;;;34.90;32.90;;;;;;;15.13;92.29;102455.22;5072727;28;20427;-48
2022/10/12 09:20:47;;;;;;;36.30;34.10;;;;;;;15.25;93.45;102451.06;5063829;28;20450;-53
2022/10/12 09:23:24;;;;;;;35.80;33.50;;;;;;;15.31;92.25;102450.31;5073348;28;20822;-52
2022/10/12 09:25:54;;;;;;;34.17;31.90;;;;;;;15.25;90.30;102443.84;5072230;28;20484;-53
2022/10/12 09:28:27;;;;;;;34.13;32.37;;;;;;;15.34;90.42;102444.56;5073336;28;20427;-51
2022/10/12 09:31:11;;;;;;;34.10;31.90;;;;;;;15.35;86.99;102446.25;5072428;28;20549;-50
2022/10/12 09:33:44;;;;;;;34.90;32.50;;;;;;;15.42;89.24;102441.78;5073231;28;20663;-53
2022/10/12 09:36:17;;;;;;;33.90;31.80;;;;;;;15.52;88.49;102437.00;5073066;28;20441;-52
2022/10/12 09:38:46;;;;;;;31.93;30.03;;;;;;;15.53;87.53;102445.91;5073327;28;20464;-46
2022/10/12 09:41:20;;;;;;;33.67;31.50;;;;;;;15.67;88.03;102440.47;5072137;28;20492;-52
2022/10/12 09:43:51;;;;;;;32.60;30.07;;;;;;;15.78;88.04;102442.69;5072968;28;20470;-53
2022/10/12 09:46:27;;;;;;;32.83;30.97;;;;;;;15.90;88.49;102426.88;5072901;28;20784;-51
2022/10/12 09:48:57;;;;;;;32.57;30.67;;;;;;;15.95;87.22;102438.72;5072837;28;20475;-53
2022/10/12 09:51:25;;;;;;;32.10;30.07;;;;;;;16.04;86.33;102439.44;5071987;28;20454;-52
2022/10/12 09:53:57;;;;;;;31.50;29.47;;;;;;;16.10;84.54;102433.28;5072928;28;20503;-55
2022/10/12 09:56:29;;;;;;;30.90;28.63;;;;;;;16.16;83.47;102437.09;5072737;28;20951;-53
2022/10/12 09:59:01;;;;;;;29.87;27.83;;;;;;;16.14;81.47;102434.56;5072788;28;20468;-54
2022/10/12 10:01:32;;;;;;;28.33;26.53;;;;;;;16.16;81.33;102432.50;5071792;28;20549;-54
2022/10/12 10:04:13;;;;;;;27.97;26.00;;;;;;;16.14;80.23;102439.13;5072756;28;20943;-48
2022/10/12 10:06:43;;;;;;;27.63;25.90;;;;;;;16.24;81.77;102448.56;5072747;28;20784;-55
2022/10/12 10:09:29;;;;;;;26.03;24.50;;;;;;;16.27;79.79;102444.63;5072643;28;20479;-53
2022/10/12 10:11:57;;;;;;;24.97;23.63;;;;;;;16.37;80.42;102437.06;5071916;28;20438;-53
2022/10/12 10:14:25;;;;;;;23.67;22.17;;;;;;;16.37;78.19;102428.97;5072584;28;20430;-51
2022/10/12 10:16:54;;;;;;;21.00;19.63;;;;;;;16.32;77.71;102442.19;5072538;28;20430;-53
2022/10/12 10:19:25;;;;;;;20.20;18.90;;;;;;;16.41;79.72;102436.50;5072004;28;20434;-51
2022/10/12 10:21:54;;;;;;;19.87;18.23;;;;;;;16.48;78.75;102431.16;5064267;28;20442;-56
2022/10/12 10:24:28;;;;;;;18.80;17.60;;;;;;;16.67;80.42;102427.81;5072152;28;20769;-52
2022/10/12 10:26:58;;;;;;;16.43;15.20;;;;;;;16.64;76.79;102425.50;5072500;28;21085;-53
2022/10/12 10:29:33;;;;;;;14.83;14.03;;;;;;;16.68;75.48;102428.66;5072306;28;20438;-52
2022/10/12 10:32:11;;;;;;;16.37;15.20;;;;;;;16.71;75.77;102417.47;5071689;28;20454;-53
2022/10/12 10:34:41;;;;;;;15.40;13.83;;;;;;;16.77;74.03;102417.53;5072050;28;20417;-55
2022/10/12 10:37:17;;;;;;;15.43;14.30;;;;;;;16.97;75.96;102415.78;5072062;28;20430;-54
2022/10/12 10:39:49;;;;;;;16.10;15.10;;;;;;;17.08;74.11;102411.72;5071786;28;20429;-54
2022/10/12 10:42:20;;;;;;;18.33;16.87;;;;;;;16.91;71.41;102413.88;5071760;28;20539;-56
2022/10/12 10:44:51;;;;;;;15.53;14.70;;;;;;;17.14;73.41;102400.16;5071966;28;20430;-51
2022/10/12 10:47:19;;;;;;;17.30;16.10;;;;;;;17.22;74.16;102399.97;5071841;28;20434;-54
2022/10/12 10:49:49;;;;;;;16.00;14.90;;;;;;;17.31;72.39;102398.78;5070364;28;20951;-50
2022/10/12 10:52:23;;;;;;;15.77;14.70;;;;;;;17.59;71.97;102402.22;5071722;28;20450;-55
2022/10/12 10:55:14;;;;;;;17.10;15.70;;;;;;;17.59;71.82;102404.09;5071736;28;20441;-51
2022/10/12 10:57:47;;;;;;;19.57;14.90;;;;;;;17.45;67.00;102405.03;5071577;28;20434;-56
2022/10/12 11:00:18;;;;;;;16.07;14.43;;;;;;;17.63;66.83;102402.66;5071496;28;20458;-54
2022/10/12 11:03:12;;;;;;;13.90;12.83;;;;;;;17.65;66.48;102406.81;5071594;28;20505;-50
2022/10/12 11:05:45;;;;;;;15.20;13.30;;;;;;;17.45;63.66;102400.47;5071698;28;20854;-53
2022/10/12 11:08:17;;;;;;;15.50;14.17;;;;;;;17.60;64.12;102403.06;5071603;28;20960;-51
2022/10/12 11:10:50;;;;;;;13.50;12.17;;;;;;;17.86;65.40;102397.72;5070872;28;20454;-52
2022/10/12 11:13:22;;;;;;;12.30;11.13;;;;;;;18.13;61.93;102396.72;5072639;28;20438;-52
2022/10/12 11:15:56;;;;;;;18.23;13.93;;;;;;;18.24;62.54;102398.00;5071737;28;20430;-55
2022/10/12 11:18:30;;;;;;;11.43;10.43;;;;;;;18.37;60.26;102391.78;5071332;28;20483;-52
2022/10/12 11:21:02;;;;;;;10.03;9.33;;;;;;;17.97;62.39;102389.03;5062298;28;20997;-55